sensor_id;sensor_type;location;lat;lon;timestamp;temperature;humidity
46932;DHT22;32670;51.464;11.964;2022-07-10T00:01:05;24.80;45.30
46932;DHT22;32670;51.464;11.964;2022-07-10T00:03:31;24.80;45.30
46932;DHT22;32670;51.464;11.964;2022-07-10T00:05:56;24.80;45.30
46932;DHT22;32670;51.464;11.964;2022-07-10T00:08:22;24.80;45.30
46932;DHT22;32670;51.464;11.964;2022-07-10T00:10:47;24.80;45.20
46932;DHT22;32670;51.464;11.964;2022-07-10T00:13:13;24.80;45.20
46932;DHT22;32670;51.464;11.964;2022-07-10T00:15:38;24.80;45.30
46932;DHT22;32670;51.464;11.964;2022-07-10T00:18:04;24.80;45.20
46932;DHT22;32670;51.464;11.964;2022-07-10T00:20:29;24.80;45.30
46932;DHT22;32670;51.464;11.964;2022-07-10T00:22:55;24.80;45.30
46932;DHT22;32670;51.464;11.964;2022-07-10T00:25:20;24.70;45.40
46932;DHT22;32670;51.464;11.964;2022-07-10T00:27:46;24.80;45.40
46932;DHT22;32670;51.464;11.964;2022-07-10T00:30:11;24.80;45.40
46932;DHT22;32670;51.464;11.964;2022-07-10T00:32:37;24.80;45.50
46932;DHT22;32670;51.464;11.964;2022-07-10T00:35:04;24.80;45.40
46932;DHT22;32670;51.464;11.964;2022-07-10T00:37:29;24.80;45.30
46932;DHT22;32670;51.464;11.964;2022-07-10T00:39:55;24.80;45.30
46932;DHT22;32670;51.464;11.964;2022-07-10T00:42:21;24.80;45.50
46932;DHT22;32670;51.464;11.964;2022-07-10T00:44:47;24.70;45.30
46932;DHT22;32670;51.464;11.964;2022-07-10T00:47:12;24.70;45.20
46932;DHT22;32670;51.464;11.964;2022-07-10T00:49:39;24.70;46.10
46932;DHT22;32670;51.464;11.964;2022-07-10T00:52:10;24.70;45.30
46932;DHT22;32670;51.464;11.964;2022-07-10T00:54:37;24.70;45.30
46932;DHT22;32670;51.464;11.964;2022-07-10T00:57:05;24.70;45.40
46932;DHT22;32670;51.464;11.964;2022-07-10T00:59:31;24.80;45.50
46932;DHT22;32670;51.464;11.964;2022-07-10T01:01:57;24.70;45.40
46932;DHT22;32670;51.464;11.964;2022-07-10T01:04:23;24.70;45.30
46932;DHT22;32670;51.464;11.964;2022-07-10T01:06:49;24.70;45.30
46932;DHT22;32670;51.464;11.964;2022-07-10T01:09:14;24.70;45.30
46932;DHT22;32670;51.464;11.964;2022-07-10T01:11:40;24.70;45.30
46932;DHT22;32670;51.464;11.964;2022-07-10T01:14:06;24.70;45.30
46932;DHT22;32670;51.464;11.964;2022-07-10T01:16:31;24.70;45.20
46932;DHT22;32670;51.464;11.964;2022-07-10T01:18:57;24.70;45.20
46932;DHT22;32670;51.464;11.964;2022-07-10T01:23:50;24.70;45.30
46932;DHT22;32670;51.464;11.964;2022-07-10T01:26:15;24.70;45.30
46932;DHT22;32670;51.464;11.964;2022-07-10T01:28:41;24.70;45.30
46932;DHT22;32670;51.464;11.964;2022-07-10T01:31:07;24.70;45.20
46932;DHT22;32670;51.464;11.964;2022-07-10T01:33:32;24.60;40.70
46932;DHT22;32670;51.464;11.964;2022-07-10T01:35:58;24.60;40.30
46932;DHT22;32670;51.464;11.964;2022-07-10T01:38:24;24.40;39.70
46932;DHT22;32670;51.464;11.964;2022-07-10T01:40:49;24.40;39.40
46932;DHT22;32670;51.464;11.964;2022-07-10T01:43:14;24.20;39.30
46932;DHT22;32670;51.464;11.964;2022-07-10T01:45:40;24.20;39.20
46932;DHT22;32670;51.464;11.964;2022-07-10T01:48:05;24.10;39.00
46932;DHT22;32670;51.464;11.964;2022-07-10T01:50:31;24.00;39.00
46932;DHT22;32670;51.464;11.964;2022-07-10T01:52:56;24.00;39.00
46932;DHT22;32670;51.464;11.964;2022-07-10T01:55:22;23.90;39.00
46932;DHT22;32670;51.464;11.964;2022-07-10T01:57:48;23.90;39.00
46932;DHT22;32670;51.464;11.964;2022-07-10T02:00:13;23.90;39.10
46932;DHT22;32670;51.464;11.964;2022-07-10T02:02:39;23.80;39.10
46932;DHT22;32670;51.464;11.964;2022-07-10T02:05:05;23.80;39.20
46932;DHT22;32670;51.464;11.964;2022-07-10T02:07:30;23.70;39.20
46932;DHT22;32670;51.464;11.964;2022-07-10T02:09:56;23.70;39.30
46932;DHT22;32670;51.464;11.964;2022-07-10T02:12:21;23.70;39.40
46932;DHT22;32670;51.464;11.964;2022-07-10T02:14:47;23.70;39.50
46932;DHT22;32670;51.464;11.964;2022-07-10T02:17:12;23.60;39.60
46932;DHT22;32670;51.464;11.964;2022-07-10T02:19:38;23.60;39.60
46932;DHT22;32670;51.464;11.964;2022-07-10T02:22:03;23.60;39.70
46932;DHT22;32670;51.464;11.964;2022-07-10T02:24:29;23.60;39.50
46932;DHT22;32670;51.464;11.964;2022-07-10T02:26:54;23.60;39.50
46932;DHT22;32670;51.464;11.964;2022-07-10T02:29:20;23.60;39.50
46932;DHT22;32670;51.464;11.964;2022-07-10T02:31:48;23.50;39.50
46932;DHT22;32670;51.464;11.964;2022-07-10T02:34:13;23.60;39.50
46932;DHT22;32670;51.464;11.964;2022-07-10T02:36:40;23.60;39.40
46932;DHT22;32670;51.464;11.964;2022-07-10T02:39:07;23.50;39.50
46932;DHT22;32670;51.464;11.964;2022-07-10T02:41:33;23.50;39.50
46932;DHT22;32670;51.464;11.964;2022-07-10T02:43:59;23.50;39.50
46932;DHT22;32670;51.464;11.964;2022-07-10T02:46:24;23.40;39.40
46932;DHT22;32670;51.464;11.964;2022-07-10T02:48:50;23.40;39.50
46932;DHT22;32670;51.464;11.964;2022-07-10T02:51:16;23.40;39.60
46932;DHT22;32670;51.464;11.964;2022-07-10T02:53:41;23.50;39.50
46932;DHT22;32670;51.464;11.964;2022-07-10T02:56:07;23.50;39.60
46932;DHT22;32670;51.464;11.964;2022-07-10T02:58:34;23.40;39.50
46932;DHT22;32670;51.464;11.964;2022-07-10T03:00:59;23.40;39.40
46932;DHT22;32670;51.464;11.964;2022-07-10T03:03:25;23.40;39.30
46932;DHT22;32670;51.464;11.964;2022-07-10T03:05:51;23.40;39.30
46932;DHT22;32670;51.464;11.964;2022-07-10T03:08:17;23.40;39.30
46932;DHT22;32670;51.464;11.964;2022-07-10T03:10:42;23.40;39.20
46932;DHT22;32670;51.464;11.964;2022-07-10T03:13:08;23.30;39.20
46932;DHT22;32670;51.464;11.964;2022-07-10T03:15:33;23.30;39.10
46932;DHT22;32670;51.464;11.964;2022-07-10T03:17:59;23.30;39.20
46932;DHT22;32670;51.464;11.964;2022-07-10T03:20:24;23.30;39.10
46932;DHT22;32670;51.464;11.964;2022-07-10T03:22:50;23.30;38.90
46932;DHT22;32670;51.464;11.964;2022-07-10T03:25:16;23.30;38.90
46932;DHT22;32670;51.464;11.964;2022-07-10T03:27:41;23.30;39.00
46932;DHT22;32670;51.464;11.964;2022-07-10T03:30:07;23.20;38.90
46932;DHT22;32670;51.464;11.964;2022-07-10T03:32:33;23.30;39.00
46932;DHT22;32670;51.464;11.964;2022-07-10T03:34:59;23.20;39.00
46932;DHT22;32670;51.464;11.964;2022-07-10T03:37:25;23.20;39.10
46932;DHT22;32670;51.464;11.964;2022-07-10T03:39:50;23.20;39.10
46932;DHT22;32670;51.464;11.964;2022-07-10T03:42:16;23.20;39.00
46932;DHT22;32670;51.464;11.964;2022-07-10T03:44:41;23.20;39.00
46932;DHT22;32670;51.464;11.964;2022-07-10T03:47:07;23.20;39.20
46932;DHT22;32670;51.464;11.964;2022-07-10T03:49:32;23.10;39.10
46932;DHT22;32670;51.464;11.964;2022-07-10T03:52:02;23.20;39.20
46932;DHT22;32670;51.464;11.964;2022-07-10T03:54:28;23.10;39.20
46932;DHT22;32670;51.464;11.964;2022-07-10T03:56:55;23.10;39.30
46932;DHT22;32670;51.464;11.964;2022-07-10T03:59:39;23.10;39.40
46932;DHT22;32670;51.464;11.964;2022-07-10T04:02:04;23.10;39.80
46932;DHT22;32670;51.464;11.964;2022-07-10T04:04:30;23.10;39.90
46932;DHT22;32670;51.464;11.964;2022-07-10T04:06:56;23.20;40.30
46932;DHT22;32670;51.464;11.964;2022-07-10T04:09:21;23.10;40.60
46932;DHT22;32670;51.464;11.964;2022-07-10T04:11:47;23.10;40.90
46932;DHT22;32670;51.464;11.964;2022-07-10T04:14:12;23.10;41.30
46932;DHT22;32670;51.464;11.964;2022-07-10T04:16:38;23.10;41.70
46932;DHT22;32670;51.464;11.964;2022-07-10T04:19:03;23.10;42.10
46932;DHT22;32670;51.464;11.964;2022-07-10T04:21:29;23.10;42.50
46932;DHT22;32670;51.464;11.964;2022-07-10T04:23:54;23.10;42.90
46932;DHT22;32670;51.464;11.964;2022-07-10T04:26:20;23.10;43.20
46932;DHT22;32670;51.464;11.964;2022-07-10T04:28:45;23.00;43.40
46932;DHT22;32670;51.464;11.964;2022-07-10T04:31:11;23.00;43.30
46932;DHT22;32670;51.464;11.964;2022-07-10T04:33:36;23.00;43.70
46932;DHT22;32670;51.464;11.964;2022-07-10T04:36:02;23.00;43.80
46932;DHT22;32670;51.464;11.964;2022-07-10T04:38:27;23.00;43.90
46932;DHT22;32670;51.464;11.964;2022-07-10T04:40:53;22.90;44.00
46932;DHT22;32670;51.464;11.964;2022-07-10T04:43:18;23.00;44.20
46932;DHT22;32670;51.464;11.964;2022-07-10T04:45:44;22.90;44.30
46932;DHT22;32670;51.464;11.964;2022-07-10T04:48:10;22.90;44.40
46932;DHT22;32670;51.464;11.964;2022-07-10T04:50:35;22.90;44.50
46932;DHT22;32670;51.464;11.964;2022-07-10T04:53:01;22.90;44.70
46932;DHT22;32670;51.464;11.964;2022-07-10T04:55:26;22.90;44.90
46932;DHT22;32670;51.464;11.964;2022-07-10T04:57:52;22.80;44.80
46932;DHT22;32670;51.464;11.964;2022-07-10T05:00:17;22.90;44.80
46932;DHT22;32670;51.464;11.964;2022-07-10T05:02:43;22.80;44.80
46932;DHT22;32670;51.464;11.964;2022-07-10T05:05:09;22.80;45.00
46932;DHT22;32670;51.464;11.964;2022-07-10T05:07:34;22.80;45.30
46932;DHT22;32670;51.464;11.964;2022-07-10T05:09:59;22.80;45.50
46932;DHT22;32670;51.464;11.964;2022-07-10T05:12:25;22.80;45.80
46932;DHT22;32670;51.464;11.964;2022-07-10T05:14:51;22.80;46.00
46932;DHT22;32670;51.464;11.964;2022-07-10T05:17:17;22.80;46.10
46932;DHT22;32670;51.464;11.964;2022-07-10T05:19:42;22.80;46.00
46932;DHT22;32670;51.464;11.964;2022-07-10T05:22:08;22.80;46.10
46932;DHT22;32670;51.464;11.964;2022-07-10T05:24:34;22.80;46.00
46932;DHT22;32670;51.464;11.964;2022-07-10T05:27:00;22.70;46.00
46932;DHT22;32670;51.464;11.964;2022-07-10T05:29:26;22.70;46.20
46932;DHT22;32670;51.464;11.964;2022-07-10T05:31:52;22.70;46.20
46932;DHT22;32670;51.464;11.964;2022-07-10T05:34:17;22.70;46.30
46932;DHT22;32670;51.464;11.964;2022-07-10T05:36:42;22.70;46.30
46932;DHT22;32670;51.464;11.964;2022-07-10T05:39:08;22.70;46.10
46932;DHT22;32670;51.464;11.964;2022-07-10T05:41:33;22.60;46.30
46932;DHT22;32670;51.464;11.964;2022-07-10T05:43:59;22.60;46.40
46932;DHT22;32670;51.464;11.964;2022-07-10T05:46:25;22.50;46.60
46932;DHT22;32670;51.464;11.964;2022-07-10T05:48:51;22.40;46.80
46932;DHT22;32670;51.464;11.964;2022-07-10T05:51:17;22.50;46.90
46932;DHT22;32670;51.464;11.964;2022-07-10T05:53:42;22.60;46.70
46932;DHT22;32670;51.464;11.964;2022-07-10T05:56:08;22.80;46.70
46932;DHT22;32670;51.464;11.964;2022-07-10T05:58:34;22.80;46.60
46932;DHT22;32670;51.464;11.964;2022-07-10T06:00:59;23.00;46.60
46932;DHT22;32670;51.464;11.964;2022-07-10T06:03:24;23.10;46.50
46932;DHT22;32670;51.464;11.964;2022-07-10T06:05:50;23.20;46.50
46932;DHT22;32670;51.464;11.964;2022-07-10T06:08:16;23.30;46.30
46932;DHT22;32670;51.464;11.964;2022-07-10T06:10:41;23.30;46.30
46932;DHT22;32670;51.464;11.964;2022-07-10T06:15:56;23.40;46.30
46932;DHT22;32670;51.464;11.964;2022-07-10T06:18:23;23.40;46.40
46932;DHT22;32670;51.464;11.964;2022-07-10T06:20:48;23.50;46.40
46932;DHT22;32670;51.464;11.964;2022-07-10T06:23:13;23.50;46.30
46932;DHT22;32670;51.464;11.964;2022-07-10T06:25:39;23.50;46.30
46932;DHT22;32670;51.464;11.964;2022-07-10T06:28:04;23.60;46.40
46932;DHT22;32670;51.464;11.964;2022-07-10T06:30:30;23.60;46.50
46932;DHT22;32670;51.464;11.964;2022-07-10T06:32:55;23.60;46.40
46932;DHT22;32670;51.464;11.964;2022-07-10T06:35:21;23.60;46.50
46932;DHT22;32670;51.464;11.964;2022-07-10T06:37:46;23.60;46.80
46932;DHT22;32670;51.464;11.964;2022-07-10T06:40:13;23.60;46.10
46932;DHT22;32670;51.464;11.964;2022-07-10T06:42:39;23.60;46.20
46932;DHT22;32670;51.464;11.964;2022-07-10T06:45:05;23.60;46.40
46932;DHT22;32670;51.464;11.964;2022-07-10T06:47:31;23.60;46.50
46932;DHT22;32670;51.464;11.964;2022-07-10T06:50:15;23.60;46.70
46932;DHT22;32670;51.464;11.964;2022-07-10T06:52:41;23.60;47.00
46932;DHT22;32670;51.464;11.964;2022-07-10T06:55:06;23.70;47.10
46932;DHT22;32670;51.464;11.964;2022-07-10T06:57:32;23.70;46.60
46932;DHT22;32670;51.464;11.964;2022-07-10T06:59:57;23.70;46.60
46932;DHT22;32670;51.464;11.964;2022-07-10T07:02:23;23.70;46.80
46932;DHT22;32670;51.464;11.964;2022-07-10T07:04:49;23.70;47.00
46932;DHT22;32670;51.464;11.964;2022-07-10T07:07:15;23.70;47.20
46932;DHT22;32670;51.464;11.964;2022-07-10T07:09:41;23.80;47.30
46932;DHT22;32670;51.464;11.964;2022-07-10T07:12:08;23.80;47.50
46932;DHT22;32670;51.464;11.964;2022-07-10T07:14:34;23.80;47.40
46932;DHT22;32670;51.464;11.964;2022-07-10T07:16:59;23.80;47.50
46932;DHT22;32670;51.464;11.964;2022-07-10T07:19:33;23.80;47.50
46932;DHT22;32670;51.464;11.964;2022-07-10T07:22:19;23.80;47.50
46932;DHT22;32670;51.464;11.964;2022-07-10T07:25:03;23.80;47.50
46932;DHT22;32670;51.464;11.964;2022-07-10T07:27:29;23.80;47.50
46932;DHT22;32670;51.464;11.964;2022-07-10T07:29:54;23.90;48.20
46932;DHT22;32670;51.464;11.964;2022-07-10T07:32:20;23.90;47.70
46932;DHT22;32670;51.464;11.964;2022-07-10T07:34:45;23.90;47.90
46932;DHT22;32670;51.464;11.964;2022-07-10T07:37:10;23.90;47.90
46932;DHT22;32670;51.464;11.964;2022-07-10T07:39:36;23.90;47.70
46932;DHT22;32670;51.464;11.964;2022-07-10T07:42:02;23.90;47.70
46932;DHT22;32670;51.464;11.964;2022-07-10T07:44:28;23.90;47.70
46932;DHT22;32670;51.464;11.964;2022-07-10T07:46:54;23.90;47.70
46932;DHT22;32670;51.464;11.964;2022-07-10T07:49:19;23.90;47.80
46932;DHT22;32670;51.464;11.964;2022-07-10T07:51:45;24.00;47.80
46932;DHT22;32670;51.464;11.964;2022-07-10T07:54:10;23.90;47.70
46932;DHT22;32670;51.464;11.964;2022-07-10T07:56:36;24.00;48.20
46932;DHT22;32670;51.464;11.964;2022-07-10T07:59:01;24.00;47.60
46932;DHT22;32670;51.464;11.964;2022-07-10T08:01:27;24.00;47.60
46932;DHT22;32670;51.464;11.964;2022-07-10T08:03:53;24.00;47.70
46932;DHT22;32670;51.464;11.964;2022-07-10T08:06:19;23.90;44.80
46932;DHT22;32670;51.464;11.964;2022-07-10T08:08:44;23.90;45.10
46932;DHT22;32670;51.464;11.964;2022-07-10T08:11:09;23.90;45.60
46932;DHT22;32670;51.464;11.964;2022-07-10T08:13:35;23.90;46.00
46932;DHT22;32670;51.464;11.964;2022-07-10T08:16:01;23.90;46.50
46932;DHT22;32670;51.464;11.964;2022-07-10T08:18:26;24.00;46.70
46932;DHT22;32670;51.464;11.964;2022-07-10T08:20:52;24.00;46.90
46932;DHT22;32670;51.464;11.964;2022-07-10T08:23:17;24.00;47.00
46932;DHT22;32670;51.464;11.964;2022-07-10T08:25:42;24.00;47.00
46932;DHT22;32670;51.464;11.964;2022-07-10T08:28:08;24.00;47.10
46932;DHT22;32670;51.464;11.964;2022-07-10T08:30:37;24.00;47.20
46932;DHT22;32670;51.464;11.964;2022-07-10T08:33:02;24.00;47.20
46932;DHT22;32670;51.464;11.964;2022-07-10T08:35:28;24.10;47.10
46932;DHT22;32670;51.464;11.964;2022-07-10T08:37:54;24.10;47.10
46932;DHT22;32670;51.464;11.964;2022-07-10T08:40:21;24.10;47.00
46932;DHT22;32670;51.464;11.964;2022-07-10T08:42:47;24.10;46.90
46932;DHT22;32670;51.464;11.964;2022-07-10T08:45:13;24.10;47.10
46932;DHT22;32670;51.464;11.964;2022-07-10T08:47:39;24.10;47.10
46932;DHT22;32670;51.464;11.964;2022-07-10T08:50:26;24.10;47.10
46932;DHT22;32670;51.464;11.964;2022-07-10T08:53:12;24.10;47.10
46932;DHT22;32670;51.464;11.964;2022-07-10T08:55:38;24.10;47.00
46932;DHT22;32670;51.464;11.964;2022-07-10T08:58:04;24.20;47.20
46932;DHT22;32670;51.464;11.964;2022-07-10T09:00:31;24.20;47.10
46932;DHT22;32670;51.464;11.964;2022-07-10T09:02:56;24.20;47.60
46932;DHT22;32670;51.464;11.964;2022-07-10T09:05:25;24.20;47.50
46932;DHT22;32670;51.464;11.964;2022-07-10T09:07:51;24.20;47.70
46932;DHT22;32670;51.464;11.964;2022-07-10T09:10:20;24.20;47.80
46932;DHT22;32670;51.464;11.964;2022-07-10T09:12:54;24.20;47.80
46932;DHT22;32670;51.464;11.964;2022-07-10T09:15:22;24.20;48.10
46932;DHT22;32670;51.464;11.964;2022-07-10T09:17:52;24.30;48.20
46932;DHT22;32670;51.464;11.964;2022-07-10T09:25:35;24.30;48.00
46932;DHT22;32670;51.464;11.964;2022-07-10T09:28:01;24.30;47.40
46932;DHT22;32670;51.464;11.964;2022-07-10T09:30:32;24.30;47.40
46932;DHT22;32670;51.464;11.964;2022-07-10T09:33:18;24.30;47.70
46932;DHT22;32670;51.464;11.964;2022-07-10T09:36:10;24.30;47.70
46932;DHT22;32670;51.464;11.964;2022-07-10T09:41:23;24.40;48.10
46932;DHT22;32670;51.464;11.964;2022-07-10T09:43:57;24.40;48.00
46932;DHT22;32670;51.464;11.964;2022-07-10T09:46:25;24.50;48.20
46932;DHT22;32670;51.464;11.964;2022-07-10T09:49:14;24.50;48.00
46932;DHT22;32670;51.464;11.964;2022-07-10T09:51:41;24.50;48.10
46932;DHT22;32670;51.464;11.964;2022-07-10T09:54:08;24.50;48.30
46932;DHT22;32670;51.464;11.964;2022-07-10T09:56:45;24.40;40.90
46932;DHT22;32670;51.464;11.964;2022-07-10T09:59:14;24.20;42.70
46932;DHT22;32670;51.464;11.964;2022-07-10T10:01:50;24.10;43.20
46932;DHT22;32670;51.464;11.964;2022-07-10T10:04:22;24.10;44.00
46932;DHT22;32670;51.464;11.964;2022-07-10T10:06:52;24.20;45.30
46932;DHT22;32670;51.464;11.964;2022-07-10T10:09:29;24.20;45.50
46932;DHT22;32670;51.464;11.964;2022-07-10T10:12:02;24.30;45.20
46932;DHT22;32670;51.464;11.964;2022-07-10T10:14:29;24.30;45.30
46932;DHT22;32670;51.464;11.964;2022-07-10T10:16:55;24.40;45.70
46932;DHT22;32670;51.464;11.964;2022-07-10T10:19:24;24.40;45.60
46932;DHT22;32670;51.464;11.964;2022-07-10T10:22:08;24.40;46.30
46932;DHT22;32670;51.464;11.964;2022-07-10T10:24:34;24.40;45.60
46932;DHT22;32670;51.464;11.964;2022-07-10T10:27:02;24.40;45.80
46932;DHT22;32670;51.464;11.964;2022-07-10T10:29:30;24.50;46.00
46932;DHT22;32670;51.464;11.964;2022-07-10T10:31:56;24.50;46.30
46932;DHT22;32670;51.464;11.964;2022-07-10T10:34:44;24.50;46.50
46932;DHT22;32670;51.464;11.964;2022-07-10T10:37:33;24.50;46.50
46932;DHT22;32670;51.464;11.964;2022-07-10T10:39:59;24.50;46.10
46932;DHT22;32670;51.464;11.964;2022-07-10T10:42:38;24.50;46.50
46932;DHT22;32670;51.464;11.964;2022-07-10T10:48:10;24.50;46.50
46932;DHT22;32670;51.464;11.964;2022-07-10T10:50:52;24.50;46.40
46932;DHT22;32670;51.464;11.964;2022-07-10T10:53:22;24.50;46.30
46932;DHT22;32670;51.464;11.964;2022-07-10T11:06:51;24.50;46.30
46932;DHT22;32670;51.464;11.964;2022-07-10T11:09:26;24.50;46.40
46932;DHT22;32670;51.464;11.964;2022-07-10T11:12:18;24.60;46.70
46932;DHT22;32670;51.464;11.964;2022-07-10T11:14:46;24.50;46.60
46932;DHT22;32670;51.464;11.964;2022-07-10T11:17:14;24.60;46.70
46932;DHT22;32670;51.464;11.964;2022-07-10T11:19:39;24.60;46.70
46932;DHT22;32670;51.464;11.964;2022-07-10T11:22:27;24.60;46.90
46932;DHT22;32670;51.464;11.964;2022-07-10T11:25:19;24.60;46.70
46932;DHT22;32670;51.464;11.964;2022-07-10T11:28:05;24.60;46.70
46932;DHT22;32670;51.464;11.964;2022-07-10T11:30:51;24.70;46.80
46932;DHT22;32670;51.464;11.964;2022-07-10T11:33:17;24.60;46.80
46932;DHT22;32670;51.464;11.964;2022-07-10T11:35:47;24.70;46.80
46932;DHT22;32670;51.464;11.964;2022-07-10T11:38:19;24.70;46.70
46932;DHT22;32670;51.464;11.964;2022-07-10T11:40:44;24.70;46.70
46932;DHT22;32670;51.464;11.964;2022-07-10T11:43:10;24.70;46.70
46932;DHT22;32670;51.464;11.964;2022-07-10T11:45:39;24.70;46.90
46932;DHT22;32670;51.464;11.964;2022-07-10T11:48:05;24.70;46.90
46932;DHT22;32670;51.464;11.964;2022-07-10T11:50:37;24.70;47.00
46932;DHT22;32670;51.464;11.964;2022-07-10T11:53:03;24.70;46.60
46932;DHT22;32670;51.464;11.964;2022-07-10T11:55:29;24.70;46.60
46932;DHT22;32670;51.464;11.964;2022-07-10T11:57:55;24.70;46.50
46932;DHT22;32670;51.464;11.964;2022-07-10T12:00:25;24.70;46.40
46932;DHT22;32670;51.464;11.964;2022-07-10T12:02:52;24.60;46.60
46932;DHT22;32670;51.464;11.964;2022-07-10T12:05:38;24.70;46.40
46932;DHT22;32670;51.464;11.964;2022-07-10T12:08:04;24.70;46.50
46932;DHT22;32670;51.464;11.964;2022-07-10T12:10:32;24.70;47.50
46932;DHT22;32670;51.464;11.964;2022-07-10T12:15:33;24.70;46.60
46932;DHT22;32670;51.464;11.964;2022-07-10T12:17:59;24.70;46.90
46932;DHT22;32670;51.464;11.964;2022-07-10T12:20:25;24.80;46.80
46932;DHT22;32670;51.464;11.964;2022-07-10T12:22:50;24.70;47.30
46932;DHT22;32670;51.464;11.964;2022-07-10T12:25:19;24.70;47.40
46932;DHT22;32670;51.464;11.964;2022-07-10T12:27:45;24.70;46.40
46932;DHT22;32670;51.464;11.964;2022-07-10T12:30:11;24.70;46.20
46932;DHT22;32670;51.464;11.964;2022-07-10T12:32:36;24.70;46.40
46932;DHT22;32670;51.464;11.964;2022-07-10T12:35:02;24.70;46.50
46932;DHT22;32670;51.464;11.964;2022-07-10T12:37:27;24.70;46.50
46932;DHT22;32670;51.464;11.964;2022-07-10T12:39:53;24.70;46.40
46932;DHT22;32670;51.464;11.964;2022-07-10T12:42:31;24.70;46.40
46932;DHT22;32670;51.464;11.964;2022-07-10T12:45:11;24.70;47.20
46932;DHT22;32670;51.464;11.964;2022-07-10T12:47:44;24.70;46.40
46932;DHT22;32670;51.464;11.964;2022-07-10T12:50:10;24.70;46.30
46932;DHT22;32670;51.464;11.964;2022-07-10T12:52:37;24.70;46.50
46932;DHT22;32670;51.464;11.964;2022-07-10T12:55:12;24.80;47.00
46932;DHT22;32670;51.464;11.964;2022-07-10T13:00:20;24.70;46.70
46932;DHT22;32670;51.464;11.964;2022-07-10T13:02:47;24.70;46.90
46932;DHT22;32670;51.464;11.964;2022-07-10T13:05:30;24.80;47.00
46932;DHT22;32670;51.464;11.964;2022-07-10T13:08:16;24.80;47.00
46932;DHT22;32670;51.464;11.964;2022-07-10T13:10:46;24.80;47.00
46932;DHT22;32670;51.464;11.964;2022-07-10T13:13:13;24.80;47.00
46932;DHT22;32670;51.464;11.964;2022-07-10T13:15:39;24.80;47.00
46932;DHT22;32670;51.464;11.964;2022-07-10T13:18:22;24.90;47.00
46932;DHT22;32670;51.464;11.964;2022-07-10T13:20:50;24.90;46.90
46932;DHT22;32670;51.464;11.964;2022-07-10T13:23:16;24.90;46.90
46932;DHT22;32670;51.464;11.964;2022-07-10T13:25:44;24.90;47.00
46932;DHT22;32670;51.464;11.964;2022-07-10T13:28:10;24.90;47.20
46932;DHT22;32670;51.464;11.964;2022-07-10T13:30:37;24.90;47.00
46932;DHT22;32670;51.464;11.964;2022-07-10T13:33:02;24.90;46.90
46932;DHT22;32670;51.464;11.964;2022-07-10T13:35:29;24.90;47.00
46932;DHT22;32670;51.464;11.964;2022-07-10T13:37:58;25.00;47.10
46932;DHT22;32670;51.464;11.964;2022-07-10T13:40:27;24.90;47.00
46932;DHT22;32670;51.464;11.964;2022-07-10T13:42:53;25.00;47.00
46932;DHT22;32670;51.464;11.964;2022-07-10T13:45:19;25.00;46.90
46932;DHT22;32670;51.464;11.964;2022-07-10T13:47:45;25.00;47.00
46932;DHT22;32670;51.464;11.964;2022-07-10T13:50:10;25.00;46.90
46932;DHT22;32670;51.464;11.964;2022-07-10T13:52:35;25.00;46.90
46932;DHT22;32670;51.464;11.964;2022-07-10T13:55:01;25.00;47.00
46932;DHT22;32670;51.464;11.964;2022-07-10T13:57:29;25.00;47.00
46932;DHT22;32670;51.464;11.964;2022-07-10T13:59:55;25.00;47.00
46932;DHT22;32670;51.464;11.964;2022-07-10T14:02:20;25.00;47.00
46932;DHT22;32670;51.464;11.964;2022-07-10T14:04:46;25.00;46.50
46932;DHT22;32670;51.464;11.964;2022-07-10T14:07:12;25.00;45.50
46932;DHT22;32670;51.464;11.964;2022-07-10T14:09:37;25.00;44.50
46932;DHT22;32670;51.464;11.964;2022-07-10T14:12:03;25.00;45.20
46932;DHT22;32670;51.464;11.964;2022-07-10T14:14:28;25.00;45.60
46932;DHT22;32670;51.464;11.964;2022-07-10T14:16:55;25.00;45.60
46932;DHT22;32670;51.464;11.964;2022-07-10T14:19:20;25.00;45.90
46932;DHT22;32670;51.464;11.964;2022-07-10T14:21:46;25.00;46.00
46932;DHT22;32670;51.464;11.964;2022-07-10T14:24:11;25.10;46.10
46932;DHT22;32670;51.464;11.964;2022-07-10T14:26:36;25.10;46.20
46932;DHT22;32670;51.464;11.964;2022-07-10T14:29:03;25.00;46.10
46932;DHT22;32670;51.464;11.964;2022-07-10T14:31:29;25.10;46.20
46932;DHT22;32670;51.464;11.964;2022-07-10T14:33:55;25.10;46.00
46932;DHT22;32670;51.464;11.964;2022-07-10T14:36:20;25.10;46.00
46932;DHT22;32670;51.464;11.964;2022-07-10T14:38:54;25.10;46.00
46932;DHT22;32670;51.464;11.964;2022-07-10T14:41:21;25.00;46.30
46932;DHT22;32670;51.464;11.964;2022-07-10T14:43:46;25.00;46.00
46932;DHT22;32670;51.464;11.964;2022-07-10T14:46:12;25.00;46.00
46932;DHT22;32670;51.464;11.964;2022-07-10T14:48:37;25.00;46.40
46932;DHT22;32670;51.464;11.964;2022-07-10T14:51:03;25.10;46.60
46932;DHT22;32670;51.464;11.964;2022-07-10T14:53:28;25.00;46.40
46932;DHT22;32670;51.464;11.964;2022-07-10T14:55:55;25.00;46.70
46932;DHT22;32670;51.464;11.964;2022-07-10T14:58:20;25.00;46.80
46932;DHT22;32670;51.464;11.964;2022-07-10T15:00:46;25.00;46.80
46932;DHT22;32670;51.464;11.964;2022-07-10T15:03:11;25.00;46.30
46932;DHT22;32670;51.464;11.964;2022-07-10T15:05:36;25.00;46.30
46932;DHT22;32670;51.464;11.964;2022-07-10T15:08:02;25.10;46.30
46932;DHT22;32670;51.464;11.964;2022-07-10T15:10:29;25.10;46.30
46932;DHT22;32670;51.464;11.964;2022-07-10T15:12:54;25.00;46.00
46932;DHT22;32670;51.464;11.964;2022-07-10T15:15:20;25.00;46.10
46932;DHT22;32670;51.464;11.964;2022-07-10T15:17:45;25.10;46.60
46932;DHT22;32670;51.464;11.964;2022-07-10T15:20:11;25.10;46.70
46932;DHT22;32670;51.464;11.964;2022-07-10T15:22:38;25.10;46.30
46932;DHT22;32670;51.464;11.964;2022-07-10T15:25:04;25.10;46.40
46932;DHT22;32670;51.464;11.964;2022-07-10T15:27:31;25.10;46.40
46932;DHT22;32670;51.464;11.964;2022-07-10T15:29:56;25.10;46.40
46932;DHT22;32670;51.464;11.964;2022-07-10T15:32:22;25.10;46.40
46932;DHT22;32670;51.464;11.964;2022-07-10T15:34:48;25.10;46.40
46932;DHT22;32670;51.464;11.964;2022-07-10T15:37:15;25.10;46.40
46932;DHT22;32670;51.464;11.964;2022-07-10T15:39:40;25.10;46.30
46932;DHT22;32670;51.464;11.964;2022-07-10T15:42:10;25.10;46.50
46932;DHT22;32670;51.464;11.964;2022-07-10T15:44:36;25.10;46.60
46932;DHT22;32670;51.464;11.964;2022-07-10T15:47:02;25.00;43.40
46932;DHT22;32670;51.464;11.964;2022-07-10T15:49:28;25.00;42.90